Terminal Aerodrome Forecast
Issued by NWS Grand Forks, ND

Home | Current Version | Previous Version | Graphics & Text | Print | Product List | Glossary On
Versions: 1 2 3 4 5 6 7 8 9 10 11 12 13 14 15 16 17 18 19 20 21
000
FTUS43 KFGF 152330
TAFGFK
TAF
KGFK 152330Z 1500/1524 03005KT P6SM FEW150
     FM150100 10005KT P6SM FEW200
     FM150500 19004KT P6SM FEW200
     FM151600 16008KT P6SM BKN200=

USA.gov is the U.S. government's official web portal to all federal, state and local government web resources and services.